sensor_id;sensor_type;location;lat;lon;timestamp;P1;P2;P0
79117;PMS7003;68523;51.336;-0.846;2023-06-10T00:00:00;39;30;
79117;PMS7003;68523;51.336;-0.846;2023-06-10T00:03:00;39;30;
79117;PMS7003;68523;51.336;-0.846;2023-06-10T00:06:00;27;24;
79117;PMS7003;68523;51.336;-0.846;2023-06-10T00:09:00;42;36;
79117;PMS7003;68523;51.336;-0.846;2023-06-10T00:12:00;42;36;
79117;PMS7003;68523;51.336;-0.846;2023-06-10T00:15:00;35;31;
79117;PMS7003;68523;51.336;-0.846;2023-06-10T00:18:00;35;31;
79117;PMS7003;68523;51.336;-0.846;2023-06-10T00:21:00;36;31;
79117;PMS7003;68523;51.336;-0.846;2023-06-10T00:24:00;48;38;
79117;PMS7003;68523;51.336;-0.846;2023-06-10T00:27:00;48;38;
79117;PMS7003;68523;51.336;-0.846;2023-06-10T00:30:00;47;40;
79117;PMS7003;68523;51.336;-0.846;2023-06-10T00:33:00;47;40;
79117;PMS7003;68523;51.336;-0.846;2023-06-10T00:36:00;40;35;
79117;PMS7003;68523;51.336;-0.846;2023-06-10T00:39:00;40;34;
79117;PMS7003;68523;51.336;-0.846;2023-06-10T00:42:00;40;34;
79117;PMS7003;68523;51.336;-0.846;2023-06-10T00:45:00;43;36;
79117;PMS7003;68523;51.336;-0.846;2023-06-10T00:48:00;43;36;
79117;PMS7003;68523;51.336;-0.846;2023-06-10T00:51:00;46;39;
79117;PMS7003;68523;51.336;-0.846;2023-06-10T00:54:00;29;26;
79117;PMS7003;68523;51.336;-0.846;2023-06-10T00:57:00;29;26;
79117;PMS7003;68523;51.336;-0.846;2023-06-10T01:00:00;34;28;
79117;PMS7003;68523;51.336;-0.846;2023-06-10T01:03:00;34;28;
79117;PMS7003;68523;51.336;-0.846;2023-06-10T01:06:01;26;23;
79117;PMS7003;68523;51.336;-0.846;2023-06-10T01:09:02;32;30;
79117;PMS7003;68523;51.336;-0.846;2023-06-10T01:12:02;32;30;
79117;PMS7003;68523;51.336;-0.846;2023-06-10T01:15:00;30;27;
79117;PMS7003;68523;51.336;-0.846;2023-06-10T01:18:00;30;27;
79117;PMS7003;68523;51.336;-0.846;2023-06-10T01:21:00;36;30;
79117;PMS7003;68523;51.336;-0.846;2023-06-10T01:24:00;26;25;
79117;PMS7003;68523;51.336;-0.846;2023-06-10T01:27:01;26;25;
79117;PMS7003;68523;51.336;-0.846;2023-06-10T01:30:02;33;30;
79117;PMS7003;68523;51.336;-0.846;2023-06-10T01:33:00;33;30;
79117;PMS7003;68523;51.336;-0.846;2023-06-10T01:36:00;64;49;
79117;PMS7003;68523;51.336;-0.846;2023-06-10T01:39:00;41;37;
79117;PMS7003;68523;51.336;-0.846;2023-06-10T01:42:00;41;37;
79117;PMS7003;68523;51.336;-0.846;2023-06-10T01:45:00;49;35;
79117;PMS7003;68523;51.336;-0.846;2023-06-10T01:48:00;49;35;
79117;PMS7003;68523;51.336;-0.846;2023-06-10T01:51:00;37;34;
79117;PMS7003;68523;51.336;-0.846;2023-06-10T01:54:00;31;27;
79117;PMS7003;68523;51.336;-0.846;2023-06-10T01:57:00;31;27;
79117;PMS7003;68523;51.336;-0.846;2023-06-10T02:00:00;32;25;
79117;PMS7003;68523;51.336;-0.846;2023-06-10T02:03:00;32;25;
79117;PMS7003;68523;51.336;-0.846;2023-06-10T02:06:00;47;37;
79117;PMS7003;68523;51.336;-0.846;2023-06-10T02:09:00;61;49;
79117;PMS7003;68523;51.336;-0.846;2023-06-10T02:12:00;61;49;
79117;PMS7003;68523;51.336;-0.846;2023-06-10T02:15:00;81;76;
79117;PMS7003;68523;51.336;-0.846;2023-06-10T02:18:00;81;76;
79117;PMS7003;68523;51.336;-0.846;2023-06-10T02:21:00;60;50;
79117;PMS7003;68523;51.336;-0.846;2023-06-10T02:24:00;77;61;
79117;PMS7003;68523;51.336;-0.846;2023-06-10T02:27:00;77;61;
79117;PMS7003;68523;51.336;-0.846;2023-06-10T02:30:00;59;47;
79117;PMS7003;68523;51.336;-0.846;2023-06-10T02:33:00;59;47;
79117;PMS7003;68523;51.336;-0.846;2023-06-10T02:36:00;58;49;
79117;PMS7003;68523;51.336;-0.846;2023-06-10T02:39:00;67;55;
79117;PMS7003;68523;51.336;-0.846;2023-06-10T02:42:00;67;55;
79117;PMS7003;68523;51.336;-0.846;2023-06-10T02:45:00;52;43;
79117;PMS7003;68523;51.336;-0.846;2023-06-10T02:48:00;52;43;
79117;PMS7003;68523;51.336;-0.846;2023-06-10T02:51:00;51;42;
79117;PMS7003;68523;51.336;-0.846;2023-06-10T02:54:00;60;45;
79117;PMS7003;68523;51.336;-0.846;2023-06-10T02:57:00;60;45;
79117;PMS7003;68523;51.336;-0.846;2023-06-10T03:00:00;62;51;
79117;PMS7003;68523;51.336;-0.846;2023-06-10T03:03:00;62;51;
79117;PMS7003;68523;51.336;-0.846;2023-06-10T03:06:00;68;55;
79117;PMS7003;68523;51.336;-0.846;2023-06-10T03:09:00;63;50;
79117;PMS7003;68523;51.336;-0.846;2023-06-10T03:12:00;63;50;
79117;PMS7003;68523;51.336;-0.846;2023-06-10T03:15:00;52;43;
79117;PMS7003;68523;51.336;-0.846;2023-06-10T03:18:00;52;43;
79117;PMS7003;68523;51.336;-0.846;2023-06-10T03:21:00;34;28;
79117;PMS7003;68523;51.336;-0.846;2023-06-10T03:24:00;46;35;
79117;PMS7003;68523;51.336;-0.846;2023-06-10T03:27:00;46;35;
79117;PMS7003;68523;51.336;-0.846;2023-06-10T03:30:00;29;28;
79117;PMS7003;68523;51.336;-0.846;2023-06-10T03:33:00;29;28;
79117;PMS7003;68523;51.336;-0.846;2023-06-10T03:36:00;37;32;
79117;PMS7003;68523;51.336;-0.846;2023-06-10T03:39:00;45;38;
79117;PMS7003;68523;51.336;-0.846;2023-06-10T03:42:00;45;38;
79117;PMS7003;68523;51.336;-0.846;2023-06-10T03:45:00;36;31;
79117;PMS7003;68523;51.336;-0.846;2023-06-10T03:48:00;36;31;
79117;PMS7003;68523;51.336;-0.846;2023-06-10T03:51:00;39;35;
79117;PMS7003;68523;51.336;-0.846;2023-06-10T03:54:00;39;34;
79117;PMS7003;68523;51.336;-0.846;2023-06-10T03:57:00;39;34;
79117;PMS7003;68523;51.336;-0.846;2023-06-10T04:00:00;41;35;
79117;PMS7003;68523;51.336;-0.846;2023-06-10T04:03:00;41;35;
79117;PMS7003;68523;51.336;-0.846;2023-06-10T04:06:00;41;35;
79117;PMS7003;68523;51.336;-0.846;2023-06-10T04:09:00;38;34;
79117;PMS7003;68523;51.336;-0.846;2023-06-10T04:12:00;38;34;
79117;PMS7003;68523;51.336;-0.846;2023-06-10T04:15:00;32;30;
79117;PMS7003;68523;51.336;-0.846;2023-06-10T04:18:00;32;30;
79117;PMS7003;68523;51.336;-0.846;2023-06-10T04:21:00;38;31;
79117;PMS7003;68523;51.336;-0.846;2023-06-10T04:24:00;41;33;
79117;PMS7003;68523;51.336;-0.846;2023-06-10T04:27:00;41;33;
79117;PMS7003;68523;51.336;-0.846;2023-06-10T04:30:00;39;33;
79117;PMS7003;68523;51.336;-0.846;2023-06-10T04:33:00;39;33;
79117;PMS7003;68523;51.336;-0.846;2023-06-10T04:36:00;45;34;
79117;PMS7003;68523;51.336;-0.846;2023-06-10T04:39:00;42;36;
79117;PMS7003;68523;51.336;-0.846;2023-06-10T04:42:00;42;36;
79117;PMS7003;68523;51.336;-0.846;2023-06-10T04:45:00;36;33;
79117;PMS7003;68523;51.336;-0.846;2023-06-10T04:48:00;36;33;
79117;PMS7003;68523;51.336;-0.846;2023-06-10T04:51:00;39;34;
79117;PMS7003;68523;51.336;-0.846;2023-06-10T04:54:00;40;33;
79117;PMS7003;68523;51.336;-0.846;2023-06-10T04:57:00;40;33;
79117;PMS7003;68523;51.336;-0.846;2023-06-10T05:00:00;46;38;
79117;PMS7003;68523;51.336;-0.846;2023-06-10T05:03:00;46;38;
79117;PMS7003;68523;51.336;-0.846;2023-06-10T05:06:00;39;33;
79117;PMS7003;68523;51.336;-0.846;2023-06-10T05:09:00;33;31;
79117;PMS7003;68523;51.336;-0.846;2023-06-10T05:12:00;33;31;
79117;PMS7003;68523;51.336;-0.846;2023-06-10T05:15:01;36;32;
79117;PMS7003;68523;51.336;-0.846;2023-06-10T05:18:00;36;32;
79117;PMS7003;68523;51.336;-0.846;2023-06-10T05:21:00;37;34;
79117;PMS7003;68523;51.336;-0.846;2023-06-10T05:24:00;32;27;
79117;PMS7003;68523;51.336;-0.846;2023-06-10T05:27:00;32;27;
79117;PMS7003;68523;51.336;-0.846;2023-06-10T05:30:00;31;28;
79117;PMS7003;68523;51.336;-0.846;2023-06-10T05:33:00;31;28;
79117;PMS7003;68523;51.336;-0.846;2023-06-10T05:36:00;37;29;
79117;PMS7003;68523;51.336;-0.846;2023-06-10T05:39:00;33;28;
79117;PMS7003;68523;51.336;-0.846;2023-06-10T05:42:00;33;28;
79117;PMS7003;68523;51.336;-0.846;2023-06-10T05:45:00;28;25;
79117;PMS7003;68523;51.336;-0.846;2023-06-10T05:48:00;28;25;
79117;PMS7003;68523;51.336;-0.846;2023-06-10T05:51:00;47;38;
79117;PMS7003;68523;51.336;-0.846;2023-06-10T05:54:01;47;38;
79117;PMS7003;68523;51.336;-0.846;2023-06-10T05:57:00;63;50;
79117;PMS7003;68523;51.336;-0.846;2023-06-10T06:00:00;65;54;
79117;PMS7003;68523;51.336;-0.846;2023-06-10T06:03:00;65;54;
79117;PMS7003;68523;51.336;-0.846;2023-06-10T06:06:00;71;59;
79117;PMS7003;68523;51.336;-0.846;2023-06-10T06:09:00;72;62;
79117;PMS7003;68523;51.336;-0.846;2023-06-10T06:12:00;72;62;
79117;PMS7003;68523;51.336;-0.846;2023-06-10T06:15:00;72;61;
79117;PMS7003;68523;51.336;-0.846;2023-06-10T06:18:00;72;61;
79117;PMS7003;68523;51.336;-0.846;2023-06-10T06:21:00;46;38;
79117;PMS7003;68523;51.336;-0.846;2023-06-10T06:24:00;59;47;
79117;PMS7003;68523;51.336;-0.846;2023-06-10T06:27:00;59;47;
79117;PMS7003;68523;51.336;-0.846;2023-06-10T06:30:00;30;26;
79117;PMS7003;68523;51.336;-0.846;2023-06-10T06:33:00;30;26;
79117;PMS7003;68523;51.336;-0.846;2023-06-10T06:36:00;46;38;
79117;PMS7003;68523;51.336;-0.846;2023-06-10T06:39:00;35;30;
79117;PMS7003;68523;51.336;-0.846;2023-06-10T06:42:00;35;30;
79117;PMS7003;68523;51.336;-0.846;2023-06-10T06:45:00;51;39;
79117;PMS7003;68523;51.336;-0.846;2023-06-10T06:48:00;51;39;
79117;PMS7003;68523;51.336;-0.846;2023-06-10T06:51:00;33;28;
79117;PMS7003;68523;51.336;-0.846;2023-06-10T06:54:00;35;29;
79117;PMS7003;68523;51.336;-0.846;2023-06-10T06:57:00;35;29;
79117;PMS7003;68523;51.336;-0.846;2023-06-10T07:00:00;43;34;
79117;PMS7003;68523;51.336;-0.846;2023-06-10T07:03:00;43;34;
79117;PMS7003;68523;51.336;-0.846;2023-06-10T07:06:00;50;39;
79117;PMS7003;68523;51.336;-0.846;2023-06-10T07:09:00;50;39;
79117;PMS7003;68523;51.336;-0.846;2023-06-10T07:12:00;43;35;
79117;PMS7003;68523;51.336;-0.846;2023-06-10T07:15:00;34;31;
79117;PMS7003;68523;51.336;-0.846;2023-06-10T07:18:00;34;31;
79117;PMS7003;68523;51.336;-0.846;2023-06-10T07:21:00;34;28;
79117;PMS7003;68523;51.336;-0.846;2023-06-10T07:24:00;34;28;
79117;PMS7003;68523;51.336;-0.846;2023-06-10T07:27:00;43;34;
79117;PMS7003;68523;51.336;-0.846;2023-06-10T07:30:00;38;35;
79117;PMS7003;68523;51.336;-0.846;2023-06-10T07:33:00;38;35;
79117;PMS7003;68523;51.336;-0.846;2023-06-10T07:36:00;37;34;
79117;PMS7003;68523;51.336;-0.846;2023-06-10T07:39:00;37;34;
79117;PMS7003;68523;51.336;-0.846;2023-06-10T07:42:00;32;29;
79117;PMS7003;68523;51.336;-0.846;2023-06-10T07:45:00;47;39;
79117;PMS7003;68523;51.336;-0.846;2023-06-10T07:48:00;47;39;
79117;PMS7003;68523;51.336;-0.846;2023-06-10T07:51:00;44;33;
79117;PMS7003;68523;51.336;-0.846;2023-06-10T07:54:00;44;33;
79117;PMS7003;68523;51.336;-0.846;2023-06-10T07:57:00;43;35;
79117;PMS7003;68523;51.336;-0.846;2023-06-10T08:00:00;59;47;
79117;PMS7003;68523;51.336;-0.846;2023-06-10T08:03:00;59;47;
79117;PMS7003;68523;51.336;-0.846;2023-06-10T08:06:00;44;37;
79117;PMS7003;68523;51.336;-0.846;2023-06-10T08:09:00;44;37;
79117;PMS7003;68523;51.336;-0.846;2023-06-10T08:12:00;53;43;
79117;PMS7003;68523;51.336;-0.846;2023-06-10T08:15:00;35;30;
79117;PMS7003;68523;51.336;-0.846;2023-06-10T08:18:00;35;30;
79117;PMS7003;68523;51.336;-0.846;2023-06-10T08:21:00;51;40;
79117;PMS7003;68523;51.336;-0.846;2023-06-10T08:24:00;51;40;
79117;PMS7003;68523;51.336;-0.846;2023-06-10T08:27:00;42;35;
79117;PMS7003;68523;51.336;-0.846;2023-06-10T08:30:00;55;45;
79117;PMS7003;68523;51.336;-0.846;2023-06-10T08:33:00;55;45;
79117;PMS7003;68523;51.336;-0.846;2023-06-10T08:36:00;31;27;
79117;PMS7003;68523;51.336;-0.846;2023-06-10T08:39:00;31;27;
79117;PMS7003;68523;51.336;-0.846;2023-06-10T08:42:03;55;44;
79117;PMS7003;68523;51.336;-0.846;2023-06-10T08:45:00;28;25;
79117;PMS7003;68523;51.336;-0.846;2023-06-10T08:48:00;28;25;
79117;PMS7003;68523;51.336;-0.846;2023-06-10T08:51:00;35;31;
79117;PMS7003;68523;51.336;-0.846;2023-06-10T08:54:01;35;31;
79117;PMS7003;68523;51.336;-0.846;2023-06-10T08:57:00;34;31;
79117;PMS7003;68523;51.336;-0.846;2023-06-10T09:00:00;34;29;
79117;PMS7003;68523;51.336;-0.846;2023-06-10T09:03:00;34;29;
79117;PMS7003;68523;51.336;-0.846;2023-06-10T09:06:00;27;24;
79117;PMS7003;68523;51.336;-0.846;2023-06-10T09:09:00;27;24;
79117;PMS7003;68523;51.336;-0.846;2023-06-10T09:12:01;28;21;
79117;PMS7003;68523;51.336;-0.846;2023-06-10T09:15:00;26;26;
79117;PMS7003;68523;51.336;-0.846;2023-06-10T09:18:00;26;26;
79117;PMS7003;68523;51.336;-0.846;2023-06-10T09:21:00;18;18;
79117;PMS7003;68523;51.336;-0.846;2023-06-10T09:24:00;18;18;
79117;PMS7003;68523;51.336;-0.846;2023-06-10T09:27:02;16;16;
79117;PMS7003;68523;51.336;-0.846;2023-06-10T09:30:00;27;24;
79117;PMS7003;68523;51.336;-0.846;2023-06-10T09:33:00;27;24;
79117;PMS7003;68523;51.336;-0.846;2023-06-10T09:36:01;23;20;
79117;PMS7003;68523;51.336;-0.846;2023-06-10T09:39:00;23;20;
79117;PMS7003;68523;51.336;-0.846;2023-06-10T09:42:00;25;23;
79117;PMS7003;68523;51.336;-0.846;2023-06-10T09:45:00;30;25;
79117;PMS7003;68523;51.336;-0.846;2023-06-10T09:48:00;30;25;
79117;PMS7003;68523;51.336;-0.846;2023-06-10T09:51:00;24;21;
79117;PMS7003;68523;51.336;-0.846;2023-06-10T09:54:02;24;21;
79117;PMS7003;68523;51.336;-0.846;2023-06-10T09:57:00;23;20;
79117;PMS7003;68523;51.336;-0.846;2023-06-10T10:00:03;45;38;
79117;PMS7003;68523;51.336;-0.846;2023-06-10T10:03:01;45;38;
79117;PMS7003;68523;51.336;-0.846;2023-06-10T10:06:00;24;21;
79117;PMS7003;68523;51.336;-0.846;2023-06-10T10:09:00;24;21;
79117;PMS7003;68523;51.336;-0.846;2023-06-10T10:12:00;23;22;
79117;PMS7003;68523;51.336;-0.846;2023-06-10T10:15:00;68;59;
79117;PMS7003;68523;51.336;-0.846;2023-06-10T10:18:02;68;59;
79117;PMS7003;68523;51.336;-0.846;2023-06-10T10:21:00;30;26;
79117;PMS7003;68523;51.336;-0.846;2023-06-10T10:24:01;30;26;
79117;PMS7003;68523;51.336;-0.846;2023-06-10T10:27:01;15;13;
79117;PMS7003;68523;51.336;-0.846;2023-06-10T10:30:00;23;21;
79117;PMS7003;68523;51.336;-0.846;2023-06-10T10:33:04;23;21;
79117;PMS7003;68523;51.336;-0.846;2023-06-10T10:36:00;21;19;
79117;PMS7003;68523;51.336;-0.846;2023-06-10T10:39:00;21;19;
79117;PMS7003;68523;51.336;-0.846;2023-06-10T10:42:00;19;15;
79117;PMS7003;68523;51.336;-0.846;2023-06-10T10:45:00;23;20;
79117;PMS7003;68523;51.336;-0.846;2023-06-10T10:48:05;23;20;
79117;PMS7003;68523;51.336;-0.846;2023-06-10T10:51:00;21;19;
79117;PMS7003;68523;51.336;-0.846;2023-06-10T11:00:00;21;20;
79117;PMS7003;68523;51.336;-0.846;2023-06-10T11:03:04;21;20;
79117;PMS7003;68523;51.336;-0.846;2023-06-10T11:06:00;26;20;
79117;PMS7003;68523;51.336;-0.846;2023-06-10T11:09:00;26;20;
79117;PMS7003;68523;51.336;-0.846;2023-06-10T11:12:00;23;22;
79117;PMS7003;68523;51.336;-0.846;2023-06-10T11:15:00;17;17;
79117;PMS7003;68523;51.336;-0.846;2023-06-10T11:21:00;23;19;
79117;PMS7003;68523;51.336;-0.846;2023-06-10T11:24:00;23;19;
79117;PMS7003;68523;51.336;-0.846;2023-06-10T11:33:00;21;20;
79117;PMS7003;68523;51.336;-0.846;2023-06-10T11:36:00;25;22;
79117;PMS7003;68523;51.336;-0.846;2023-06-10T11:39:01;25;22;
79117;PMS7003;68523;51.336;-0.846;2023-06-10T11:42:00;19;18;
79117;PMS7003;68523;51.336;-0.846;2023-06-10T11:45:00;24;22;
79117;PMS7003;68523;51.336;-0.846;2023-06-10T11:48:00;24;22;
79117;PMS7003;68523;51.336;-0.846;2023-06-10T11:51:00;22;21;
79117;PMS7003;68523;51.336;-0.846;2023-06-10T11:54:00;22;21;
79117;PMS7003;68523;51.336;-0.846;2023-06-10T11:57:00;25;21;
79117;PMS7003;68523;51.336;-0.846;2023-06-10T12:00:03;23;23;
79117;PMS7003;68523;51.336;-0.846;2023-06-10T12:03:00;23;23;
79117;PMS7003;68523;51.336;-0.846;2023-06-10T12:06:01;23;23;
79117;PMS7003;68523;51.336;-0.846;2023-06-10T12:09:00;23;23;
79117;PMS7003;68523;51.336;-0.846;2023-06-10T12:12:01;18;17;
79117;PMS7003;68523;51.336;-0.846;2023-06-10T12:15:00;20;19;
79117;PMS7003;68523;51.336;-0.846;2023-06-10T12:18:00;20;19;
79117;PMS7003;68523;51.336;-0.846;2023-06-10T12:21:00;22;19;
79117;PMS7003;68523;51.336;-0.846;2023-06-10T12:24:01;22;19;
79117;PMS7003;68523;51.336;-0.846;2023-06-10T12:27:00;21;21;
79117;PMS7003;68523;51.336;-0.846;2023-06-10T12:30:00;18;16;
79117;PMS7003;68523;51.336;-0.846;2023-06-10T12:33:00;18;16;
79117;PMS7003;68523;51.336;-0.846;2023-06-10T12:36:00;16;15;
79117;PMS7003;68523;51.336;-0.846;2023-06-10T12:39:02;16;15;
79117;PMS7003;68523;51.336;-0.846;2023-06-10T12:42:00;17;16;
79117;PMS7003;68523;51.336;-0.846;2023-06-10T12:45:00;17;16;
79117;PMS7003;68523;51.336;-0.846;2023-06-10T12:48:08;17;16;
79117;PMS7003;68523;51.336;-0.846;2023-06-10T12:51:00;19;19;
79117;PMS7003;68523;51.336;-0.846;2023-06-10T12:54:00;19;19;
79117;PMS7003;68523;51.336;-0.846;2023-06-10T12:57:00;14;14;
79117;PMS7003;68523;51.336;-0.846;2023-06-10T13:00:00;15;14;
79117;PMS7003;68523;51.336;-0.846;2023-06-10T13:03:00;15;14;
79117;PMS7003;68523;51.336;-0.846;2023-06-10T13:06:00;16;16;
79117;PMS7003;68523;51.336;-0.846;2023-06-10T13:09:01;16;16;
79117;PMS7003;68523;51.336;-0.846;2023-06-10T13:12:00;17;17;
79117;PMS7003;68523;51.336;-0.846;2023-06-10T13:15:00;18;16;
79117;PMS7003;68523;51.336;-0.846;2023-06-10T13:18:00;18;16;
79117;PMS7003;68523;51.336;-0.846;2023-06-10T13:21:00;18;15;
79117;PMS7003;68523;51.336;-0.846;2023-06-10T13:24:00;18;15;
79117;PMS7003;68523;51.336;-0.846;2023-06-10T13:27:00;18;15;
79117;PMS7003;68523;51.336;-0.846;2023-06-10T13:30:00;16;16;
79117;PMS7003;68523;51.336;-0.846;2023-06-10T13:33:00;16;16;
79117;PMS7003;68523;51.336;-0.846;2023-06-10T13:36:00;16;15;
79117;PMS7003;68523;51.336;-0.846;2023-06-10T13:39:00;16;15;
79117;PMS7003;68523;51.336;-0.846;2023-06-10T13:42:00;14;13;
79117;PMS7003;68523;51.336;-0.846;2023-06-10T13:45:00;16;15;
79117;PMS7003;68523;51.336;-0.846;2023-06-10T13:48:00;16;15;
79117;PMS7003;68523;51.336;-0.846;2023-06-10T13:51:00;13;13;
79117;PMS7003;68523;51.336;-0.846;2023-06-10T13:54:00;13;13;
79117;PMS7003;68523;51.336;-0.846;2023-06-10T13:57:00;18;17;
79117;PMS7003;68523;51.336;-0.846;2023-06-10T14:00:00;17;17;
79117;PMS7003;68523;51.336;-0.846;2023-06-10T14:03:00;17;17;
79117;PMS7003;68523;51.336;-0.846;2023-06-10T14:06:00;15;15;
79117;PMS7003;68523;51.336;-0.846;2023-06-10T14:09:00;15;15;
79117;PMS7003;68523;51.336;-0.846;2023-06-10T14:12:00;15;14;
79117;PMS7003;68523;51.336;-0.846;2023-06-10T14:15:00;16;16;
79117;PMS7003;68523;51.336;-0.846;2023-06-10T14:18:00;16;16;
79117;PMS7003;68523;51.336;-0.846;2023-06-10T14:21:00;20;18;
79117;PMS7003;68523;51.336;-0.846;2023-06-10T14:24:00;20;18;
79117;PMS7003;68523;51.336;-0.846;2023-06-10T14:27:00;unknown;unknown;
79117;PMS7003;68523;51.336;-0.846;2023-06-10T14:30:00;14;14;
79117;PMS7003;68523;51.336;-0.846;2023-06-10T14:33:00;14;14;
79117;PMS7003;68523;51.336;-0.846;2023-06-10T14:36:00;15;15;
79117;PMS7003;68523;51.336;-0.846;2023-06-10T14:39:00;15;15;
79117;PMS7003;68523;51.336;-0.846;2023-06-10T14:42:00;21;20;
79117;PMS7003;68523;51.336;-0.846;2023-06-10T14:45:00;28;26;
79117;PMS7003;68523;51.336;-0.846;2023-06-10T14:48:00;28;26;
79117;PMS7003;68523;51.336;-0.846;2023-06-10T14:51:00;17;15;
79117;PMS7003;68523;51.336;-0.846;2023-06-10T14:54:00;17;15;
79117;PMS7003;68523;51.336;-0.846;2023-06-10T14:57:00;22;19;
79117;PMS7003;68523;51.336;-0.846;2023-06-10T15:00:00;17;17;
79117;PMS7003;68523;51.336;-0.846;2023-06-10T15:03:00;17;17;
79117;PMS7003;68523;51.336;-0.846;2023-06-10T15:06:00;22;21;
79117;PMS7003;68523;51.336;-0.846;2023-06-10T15:09:00;22;21;
79117;PMS7003;68523;51.336;-0.846;2023-06-10T15:12:00;35;32;
79117;PMS7003;68523;51.336;-0.846;2023-06-10T15:15:00;20;19;
79117;PMS7003;68523;51.336;-0.846;2023-06-10T15:18:00;20;19;
79117;PMS7003;68523;51.336;-0.846;2023-06-10T15:21:00;22;22;
79117;PMS7003;68523;51.336;-0.846;2023-06-10T15:24:00;22;22;
79117;PMS7003;68523;51.336;-0.846;2023-06-10T15:27:00;20;19;
79117;PMS7003;68523;51.336;-0.846;2023-06-10T15:30:00;14;13;
79117;PMS7003;68523;51.336;-0.846;2023-06-10T15:33:00;14;13;
79117;PMS7003;68523;51.336;-0.846;2023-06-10T15:36:00;21;21;
79117;PMS7003;68523;51.336;-0.846;2023-06-10T15:39:00;21;21;
79117;PMS7003;68523;51.336;-0.846;2023-06-10T15:42:00;22;20;
79117;PMS7003;68523;51.336;-0.846;2023-06-10T15:45:00;25;22;
79117;PMS7003;68523;51.336;-0.846;2023-06-10T15:48:00;25;22;
79117;PMS7003;68523;51.336;-0.846;2023-06-10T15:51:00;35;31;
79117;PMS7003;68523;51.336;-0.846;2023-06-10T15:54:00;35;31;
79117;PMS7003;68523;51.336;-0.846;2023-06-10T15:57:00;29;29;
79117;PMS7003;68523;51.336;-0.846;2023-06-10T16:00:00;17;16;
79117;PMS7003;68523;51.336;-0.846;2023-06-10T16:03:00;17;16;
79117;PMS7003;68523;51.336;-0.846;2023-06-10T16:06:00;18;17;
79117;PMS7003;68523;51.336;-0.846;2023-06-10T16:09:01;18;17;
79117;PMS7003;68523;51.336;-0.846;2023-06-10T16:12:00;17;17;
79117;PMS7003;68523;51.336;-0.846;2023-06-10T16:15:00;13;13;
79117;PMS7003;68523;51.336;-0.846;2023-06-10T16:18:00;13;13;
79117;PMS7003;68523;51.336;-0.846;2023-06-10T16:21:00;21;19;
79117;PMS7003;68523;51.336;-0.846;2023-06-10T16:24:00;21;19;
79117;PMS7003;68523;51.336;-0.846;2023-06-10T16:27:00;33;31;
79117;PMS7003;68523;51.336;-0.846;2023-06-10T16:30:00;20;20;
79117;PMS7003;68523;51.336;-0.846;2023-06-10T16:33:00;20;20;
79117;PMS7003;68523;51.336;-0.846;2023-06-10T16:36:00;20;20;
79117;PMS7003;68523;51.336;-0.846;2023-06-10T16:39:00;20;20;
79117;PMS7003;68523;51.336;-0.846;2023-06-10T16:42:00;46;38;
79117;PMS7003;68523;51.336;-0.846;2023-06-10T16:45:00;26;24;
79117;PMS7003;68523;51.336;-0.846;2023-06-10T16:48:00;26;24;
79117;PMS7003;68523;51.336;-0.846;2023-06-10T16:51:00;23;21;
79117;PMS7003;68523;51.336;-0.846;2023-06-10T16:54:00;23;21;
79117;PMS7003;68523;51.336;-0.846;2023-06-10T16:57:00;39;34;
79117;PMS7003;68523;51.336;-0.846;2023-06-10T17:00:00;23;23;
79117;PMS7003;68523;51.336;-0.846;2023-06-10T17:03:00;23;23;
79117;PMS7003;68523;51.336;-0.846;2023-06-10T17:06:00;29;29;
79117;PMS7003;68523;51.336;-0.846;2023-06-10T17:09:00;29;29;
79117;PMS7003;68523;51.336;-0.846;2023-06-10T17:12:00;21;20;
79117;PMS7003;68523;51.336;-0.846;2023-06-10T17:15:00;29;28;
79117;PMS7003;68523;51.336;-0.846;2023-06-10T17:18:00;29;28;
79117;PMS7003;68523;51.336;-0.846;2023-06-10T17:21:00;36;32;
79117;PMS7003;68523;51.336;-0.846;2023-06-10T17:24:00;36;32;
79117;PMS7003;68523;51.336;-0.846;2023-06-10T17:27:00;30;29;
79117;PMS7003;68523;51.336;-0.846;2023-06-10T17:30:00;30;29;
79117;PMS7003;68523;51.336;-0.846;2023-06-10T17:33:00;25;24;
79117;PMS7003;68523;51.336;-0.846;2023-06-10T17:36:00;27;26;
79117;PMS7003;68523;51.336;-0.846;2023-06-10T17:39:00;27;26;
79117;PMS7003;68523;51.336;-0.846;2023-06-10T17:42:00;33;29;
79117;PMS7003;68523;51.336;-0.846;2023-06-10T17:45:00;33;29;
79117;PMS7003;68523;51.336;-0.846;2023-06-10T17:48:00;42;35;
79117;PMS7003;68523;51.336;-0.846;2023-06-10T17:51:00;21;21;
79117;PMS7003;68523;51.336;-0.846;2023-06-10T17:54:00;21;21;
79117;PMS7003;68523;51.336;-0.846;2023-06-10T17:57:00;17;17;
79117;PMS7003;68523;51.336;-0.846;2023-06-10T18:00:00;17;17;
79117;PMS7003;68523;51.336;-0.846;2023-06-10T18:03:00;21;20;
79117;PMS7003;68523;51.336;-0.846;2023-06-10T18:06:00;19;18;
79117;PMS7003;68523;51.336;-0.846;2023-06-10T18:09:00;19;18;
79117;PMS7003;68523;51.336;-0.846;2023-06-10T18:12:00;21;21;
79117;PMS7003;68523;51.336;-0.846;2023-06-10T18:15:00;21;21;
79117;PMS7003;68523;51.336;-0.846;2023-06-10T18:18:00;18;16;
79117;PMS7003;68523;51.336;-0.846;2023-06-10T18:21:00;20;19;
79117;PMS7003;68523;51.336;-0.846;2023-06-10T18:24:00;20;19;
79117;PMS7003;68523;51.336;-0.846;2023-06-10T18:27:00;23;21;
79117;PMS7003;68523;51.336;-0.846;2023-06-10T18:30:00;23;21;
79117;PMS7003;68523;51.336;-0.846;2023-06-10T18:33:00;21;21;
79117;PMS7003;68523;51.336;-0.846;2023-06-10T18:36:00;21;21;
79117;PMS7003;68523;51.336;-0.846;2023-06-10T18:39:00;21;21;
79117;PMS7003;68523;51.336;-0.846;2023-06-10T18:42:00;21;19;
79117;PMS7003;68523;51.336;-0.846;2023-06-10T18:45:00;21;19;
79117;PMS7003;68523;51.336;-0.846;2023-06-10T18:48:00;21;21;
79117;PMS7003;68523;51.336;-0.846;2023-06-10T18:51:00;21;21;
79117;PMS7003;68523;51.336;-0.846;2023-06-10T18:54:00;21;21;
79117;PMS7003;68523;51.336;-0.846;2023-06-10T18:57:00;19;19;
79117;PMS7003;68523;51.336;-0.846;2023-06-10T19:00:00;19;19;
79117;PMS7003;68523;51.336;-0.846;2023-06-10T19:03:00;22;22;
79117;PMS7003;68523;51.336;-0.846;2023-06-10T19:06:00;23;22;
79117;PMS7003;68523;51.336;-0.846;2023-06-10T19:09:00;23;22;
79117;PMS7003;68523;51.336;-0.846;2023-06-10T19:12:00;26;23;
79117;PMS7003;68523;51.336;-0.846;2023-06-10T19:15:00;26;23;
79117;PMS7003;68523;51.336;-0.846;2023-06-10T19:18:00;26;24;
79117;PMS7003;68523;51.336;-0.846;2023-06-10T19:21:00;40;34;
79117;PMS7003;68523;51.336;-0.846;2023-06-10T19:24:00;40;34;
79117;PMS7003;68523;51.336;-0.846;2023-06-10T19:27:00;47;39;
79117;PMS7003;68523;51.336;-0.846;2023-06-10T19:30:00;47;39;
79117;PMS7003;68523;51.336;-0.846;2023-06-10T19:33:00;37;32;
79117;PMS7003;68523;51.336;-0.846;2023-06-10T19:36:00;33;31;
79117;PMS7003;68523;51.336;-0.846;2023-06-10T19:39:00;33;31;
79117;PMS7003;68523;51.336;-0.846;2023-06-10T19:42:00;48;39;
79117;PMS7003;68523;51.336;-0.846;2023-06-10T19:45:00;unknown;unknown;
79117;PMS7003;68523;51.336;-0.846;2023-06-10T19:48:00;unknown;unknown;